Time;durP1;ratioP1;P1;durP2;ratioP2;P2;SDS_P1;SDS_P2;PMS_P1;PMS_P2;Temp;Humidity;BMP_temperature;BMP_pressure;BME280_temperature;BME280_humidity;BME280_pressure;Samples;Min_cycle;Max_cycle;Signal;HPM_P1;HPM_P2
2022/06/20 00:01:00;;;;;;;20.27;10.57;;;;;;;;;;5016827;28;20189;-86
2022/06/20 00:04:05;;;;;;;23.70;10.07;;;;;;;;;;5016420;28;20247;-86
2022/06/20 00:07:12;;;;;;;18.17;10.13;;;;;;;;;;5005644;28;20208;-86
2022/06/20 00:10:19;;;;;;;15.60;10.37;;;;;;;;;;5004867;28;20571;-85
2022/06/20 00:13:31;;;;;;;15.37;9.83;;;;;;;;;;4994228;28;20532;-86
2022/06/20 00:16:35;;;;;;;14.57;9.77;;;;;;;;;;4994078;28;20177;-86
2022/06/20 00:19:42;;;;;;;16.87;10.73;;;;;;;;;;5005751;28;20177;-86
2022/06/20 00:22:46;;;;;;;18.47;10.83;;;;;;;;;;4994472;28;20212;-86
2022/06/20 00:25:50;;;;;;;17.60;11.33;;;;;;;;;;5004952;28;20236;-86
2022/06/20 00:28:56;;;;;;;21.37;11.10;;;;;;;;;;4993594;28;20212;-86
2022/06/20 00:32:00;;;;;;;20.30;11.63;;;;;;;;;;5005208;28;20540;-86
2022/06/20 00:35:05;;;;;;;18.67;10.90;;;;;;;;;;5004803;28;20225;-86
2022/06/20 00:38:16;;;;;;;17.73;11.20;;;;;;;;;;5005293;28;20188;-86
2022/06/20 00:41:25;;;;;;;16.37;10.43;;;;;;;;;;4993733;28;20208;-86
2022/06/20 00:44:35;;;;;;;22.83;11.63;;;;;;;;;;4993410;28;20596;-86
2022/06/20 00:48:09;;;;;;;17.63;11.13;;;;;;;;;;5007694;28;20192;-86
2022/06/20 00:52:04;;;;;;;24.97;12.13;;;;;;;;;;5015978;28;20659;-85
2022/06/20 00:55:44;;;;;;;19.57;11.87;;;;;;;;;;4968393;28;20216;-85
2022/06/20 00:59:11;;;;;;;20.40;10.70;;;;;;;;;;4968123;28;20661;-86
2022/06/20 01:02:38;;;;;;;22.00;9.73;;;;;;;;;;4983472;28;20205;-85
2022/06/20 01:06:12;;;;;;;16.10;10.60;;;;;;;;;;4976994;28;20179;-86
2022/06/20 01:09:40;;;;;;;17.83;10.90;;;;;;;;;;4977557;28;20201;-86
2022/06/20 01:13:06;;;;;;;18.50;12.13;;;;;;;;;;4976688;28;20182;-86
2022/06/20 01:16:34;;;;;;;16.17;11.33;;;;;;;;;;5013885;28;20201;-86
2022/06/20 01:20:02;;;;;;;15.43;11.27;;;;;;;;;;5007234;28;20192;-86
2022/06/20 01:23:35;;;;;;;20.00;12.43;;;;;;;;;;5015373;28;20182;-86
2022/06/20 01:27:19;;;;;;;14.53;12.43;;;;;;;;;;4968223;28;20197;-86
2022/06/20 01:30:43;;;;;;;17.13;12.03;;;;;;;;;;4976844;28;20194;-86
2022/06/20 01:34:06;;;;;;;20.50;11.50;;;;;;;;;;5005258;28;20224;-85
2022/06/20 01:37:32;;;;;;;21.70;12.77;;;;;;;;;;5006335;28;20657;-86
2022/06/20 01:44:41;;;;;;;21.47;12.13;;;;;;;;;;4976102;28;20237;-86
2022/06/20 01:48:13;;;;;;;20.87;12.23;;;;;;;;;;4967549;28;20190;-86
2022/06/20 01:51:41;;;;;;;21.90;11.77;;;;;;;;;;4973453;28;20205;-85
2022/06/20 01:55:14;;;;;;;27.53;11.60;;;;;;;;;;4967647;28;20221;-86
2022/06/20 01:58:44;;;;;;;22.50;10.87;;;;;;;;;;4984665;28;20186;-86
2022/06/20 02:02:06;;;;;;;19.10;10.10;;;;;;;;;;4976301;28;20186;-89
2022/06/20 02:05:31;;;;;;;15.80;8.10;;;;;;;;;;4984811;28;20708;-89
2022/06/20 02:08:57;;;;;;;12.23;8.20;;;;;;;;;;4976053;28;20211;-87
2022/06/20 02:12:19;;;;;;;14.90;8.87;;;;;;;;;;4967147;28;20187;-87
2022/06/20 02:15:43;;;;;;;18.93;10.10;;;;;;;;;;4984092;28;20222;-87
2022/06/20 02:19:08;;;;;;;15.60;8.67;;;;;;;;;;4966792;28;20653;-87
2022/06/20 02:22:33;;;;;;;15.30;9.47;;;;;;;;;;4984480;28;20187;-86
2022/06/20 02:25:56;;;;;;;19.53;9.67;;;;;;;;;;4984027;28;20231;-86
2022/06/20 02:29:26;;;;;;;16.57;10.13;;;;;;;;;;4966727;28;20183;-85
2022/06/20 02:32:58;;;;;;;19.33;10.27;;;;;;;;;;4984129;28;20185;-85
2022/06/20 02:36:22;;;;;;;20.67;10.53;;;;;;;;;;4984296;28;20186;-85
2022/06/20 02:39:44;;;;;;;16.67;10.13;;;;;;;;;;4974933;28;20558;-85
2022/06/20 02:43:19;;;;;;;20.70;9.90;;;;;;;;;;4983619;28;20186;-85
2022/06/20 02:46:42;;;;;;;20.23;10.17;;;;;;;;;;4996028;28;20193;-85
2022/06/20 02:50:06;;;;;;;14.03;9.13;;;;;;;;;;5014428;28;20204;-85
2022/06/20 02:53:40;;;;;;;18.17;9.60;;;;;;;;;;5005155;28;20190;-85
2022/06/20 02:57:34;;;;;;;13.47;9.03;;;;;;;;;;5005323;28;20186;-85
2022/06/20 03:01:14;;;;;;;22.13;10.10;;;;;;;;;;4966798;28;20191;-85
2022/06/20 03:04:41;;;;;;;21.27;9.90;;;;;;;;;;4980805;28;20234;-85
2022/06/20 03:08:03;;;;;;;18.57;10.23;;;;;;;;;;4975193;28;20632;-85
2022/06/20 03:11:31;;;;;;;16.57;10.60;;;;;;;;;;4965887;28;20198;-85
2022/06/20 03:14:58;;;;;;;15.83;9.90;;;;;;;;;;4991904;28;20229;-85
2022/06/20 03:18:23;;;;;;;15.67;9.53;;;;;;;;;;4966089;28;20183;-85
2022/06/20 03:21:47;;;;;;;14.80;9.27;;;;;;;;;;4979403;28;20614;-85
2022/06/20 03:25:12;;;;;;;16.80;10.77;;;;;;;;;;4975262;28;20235;-87
2022/06/20 03:28:35;;;;;;;19.43;11.40;;;;;;;;;;4975459;28;20198;-87
2022/06/20 03:31:58;;;;;;;20.83;10.67;;;;;;;;;;4974575;28;20562;-87
2022/06/20 03:35:21;;;;;;;19.47;10.47;;;;;;;;;;4966916;28;20225;-85
2022/06/20 03:38:46;;;;;;;21.57;9.80;;;;;;;;;;4974837;28;20546;-85
2022/06/20 03:42:09;;;;;;;15.83;8.80;;;;;;;;;;4965873;28;20187;-86
2022/06/20 03:45:35;;;;;;;14.77;8.40;;;;;;;;;;4977905;28;20587;-86
2022/06/20 03:49:07;;;;;;;16.60;8.57;;;;;;;;;;4975445;28;20512;-86
2022/06/20 03:52:38;;;;;;;17.23;8.43;;;;;;;;;;4978393;28;20175;-85
2022/06/20 03:56:15;;;;;;;17.57;9.20;;;;;;;;;;4969758;28;20179;-84
2022/06/20 03:59:45;;;;;;;16.00;8.27;;;;;;;;;;4969317;28;20187;-85
2022/06/20 04:03:20;;;;;;;14.87;8.40;;;;;;;;;;4965495;28;20634;-86
2022/06/20 04:06:52;;;;;;;24.07;9.13;;;;;;;;;;4974128;28;20179;-85
2022/06/20 04:14:21;;;;;;;16.47;8.20;;;;;;;;;;4978283;28;20231;-85
2022/06/20 04:21:49;;;;;;;19.40;8.77;;;;;;;;;;4974818;28;20179;-86
2022/06/20 04:25:17;;;;;;;20.13;9.00;;;;;;;;;;5012837;28;20228;-86
2022/06/20 04:28:59;;;;;;;20.13;9.30;;;;;;;;;;4987117;28;20190;-86
2022/06/20 04:32:33;;;;;;;14.50;9.40;;;;;;;;;;4969198;28;20626;-85
2022/06/20 04:36:21;;;;;;;24.17;9.53;;;;;;;;;;4978771;28;20230;-84
2022/06/20 04:39:55;;;;;;;28.00;11.13;;;;;;;;;;4972509;28;20187;-84
2022/06/20 04:43:26;;;;;;;20.80;9.70;;;;;;;;;;4980534;28;20190;-84
2022/06/20 04:47:16;;;;;;;20.47;10.37;;;;;;;;;;4977272;28;20183;-85
2022/06/20 04:50:44;;;;;;;20.50;9.63;;;;;;;;;;5008736;28;20196;-84
2022/06/20 04:54:12;;;;;;;13.63;8.97;;;;;;;;;;4991411;28;20242;-85
2022/06/20 04:57:36;;;;;;;18.60;9.47;;;;;;;;;;4968928;28;20186;-86
2022/06/20 05:01:00;;;;;;;19.07;10.03;;;;;;;;;;4982503;28;20187;-85
2022/06/20 05:04:38;;;;;;;15.50;9.17;;;;;;;;;;4981650;28;20246;-84
2022/06/20 05:08:02;;;;;;;25.70;9.60;;;;;;;;;;4980233;28;20179;-86
2022/06/20 05:11:37;;;;;;;16.23;9.80;;;;;;;;;;4981465;28;20194;-84
2022/06/20 05:15:11;;;;;;;17.03;9.53;;;;;;;;;;5004180;28;20225;-84
2022/06/20 05:18:36;;;;;;;19.50;10.20;;;;;;;;;;4969776;28;20187;-85
2022/06/20 05:22:03;;;;;;;20.97;9.40;;;;;;;;;;4979111;28;20658;-84
2022/06/20 05:25:27;;;;;;;24.13;10.07;;;;;;;;;;5013905;28;20264;-84
2022/06/20 05:28:52;;;;;;;18.30;9.47;;;;;;;;;;4996943;28;20554;-85
2022/06/20 05:32:24;;;;;;;16.07;8.77;;;;;;;;;;4989577;28;20200;-85
2022/06/20 05:36:28;;;;;;;20.70;8.57;;;;;;;;;;4989757;28;20221;-84
2022/06/20 05:39:38;;;;;;;24.80;8.30;;;;;;;;;;4975594;28;20197;-84
2022/06/20 05:42:42;;;;;;;15.83;7.13;;;;;;;;;;4985497;28;20202;-85
2022/06/20 05:45:53;;;;;;;20.17;7.17;;;;;;;;;;4984720;28;20227;-85
2022/06/20 05:49:07;;;;;;;18.97;7.23;;;;;;;;;;4996002;28;20176;-85
2022/06/20 05:52:18;;;;;;;18.50;5.87;;;;;;;;;;4965300;28;20201;-84
2022/06/20 05:55:26;;;;;;;14.67;5.90;;;;;;;;;;4976721;28;20217;-84
2022/06/20 05:58:34;;;;;;;12.17;5.57;;;;;;;;;;4965674;28;20186;-84
2022/06/20 06:01:40;;;;;;;16.07;5.50;;;;;;;;;;4976696;28;20182;-84
2022/06/20 06:04:50;;;;;;;15.70;5.87;;;;;;;;;;4965073;28;20217;-85
2022/06/20 06:08:13;;;;;;;24.20;5.33;;;;;;;;;;4976466;28;20543;-84
2022/06/20 06:11:22;;;;;;;13.83;5.70;;;;;;;;;;4983019;28;20203;-84
2022/06/20 06:14:38;;;;;;;10.27;5.00;;;;;;;;;;4983930;28;20227;-84
2022/06/20 06:17:51;;;;;;;15.60;5.13;;;;;;;;;;4984536;28;20618;-84
2022/06/20 06:20:55;;;;;;;13.63;5.10;;;;;;;;;;4983848;28;20189;-85
2022/06/20 06:24:01;;;;;;;13.43;5.13;;;;;;;;;;4995227;28;20215;-85
2022/06/20 06:27:07;;;;;;;17.00;5.50;;;;;;;;;;4983954;28;20183;-85
2022/06/20 06:30:27;;;;;;;11.53;5.00;;;;;;;;;;4972760;28;20179;-85
2022/06/20 06:33:37;;;;;;;13.23;5.37;;;;;;;;;;4994785;28;20187;-85
2022/06/20 06:36:46;;;;;;;11.87;4.50;;;;;;;;;;4972008;28;20195;-84
2022/06/20 06:40:01;;;;;;;11.77;4.53;;;;;;;;;;4994880;28;20180;-85
2022/06/20 06:43:19;;;;;;;15.83;4.80;;;;;;;;;;4972388;28;20201;-85
2022/06/20 06:46:36;;;;;;;11.13;4.50;;;;;;;;;;4971899;28;20223;-85
2022/06/20 06:49:44;;;;;;;13.83;4.87;;;;;;;;;;4994433;28;20189;-84
2022/06/20 06:52:54;;;;;;;19.73;4.30;;;;;;;;;;4994192;28;20185;-91
2022/06/20 06:56:08;;;;;;;12.60;4.27;;;;;;;;;;4983254;28;20176;-91
2022/06/20 06:59:21;;;;;;;20.77;4.40;;;;;;;;;;4972143;28;20181;-90
2022/06/20 07:02:28;;;;;;;10.23;4.20;;;;;;;;;;4971976;28;20624;-91
2022/06/20 07:05:36;;;;;;;14.02;4.55;;;;;;;;;;4983036;28;20222;-92
2022/06/20 07:08:51;;;;;;;8.80;4.05;;;;;;;;;;4983233;28;20181;-91
2022/06/20 07:12:13;;;;;;;14.90;4.22;;;;;;;;;;4972240;28;20190;-92
2022/06/20 07:15:21;;;;;;;13.45;3.78;;;;;;;;;;4971800;28;20233;-89
2022/06/20 07:18:36;;;;;;;10.90;4.25;;;;;;;;;;4992288;28;20540;-89
2022/06/20 07:21:42;;;;;;;8.82;4.03;;;;;;;;;;4982380;28;20191;-89
2022/06/20 07:24:47;;;;;;;12.77;4.38;;;;;;;;;;4963500;28;20220;-89
2022/06/20 07:27:59;;;;;;;12.13;4.38;;;;;;;;;;4963318;28;20190;-89
2022/06/20 07:31:14;;;;;;;14.75;4.38;;;;;;;;;;4963122;28;20629;-89
2022/06/20 07:34:33;;;;;;;14.75;4.88;;;;;;;;;;4963031;28;20225;-89
2022/06/20 07:37:52;;;;;;;12.75;4.35;;;;;;;;;;4979613;28;20188;-89
2022/06/20 07:41:26;;;;;;;14.48;4.10;;;;;;;;;;4971510;28;20185;-89
2022/06/20 07:44:36;;;;;;;14.63;4.68;;;;;;;;;;4982180;28;20227;-89
2022/06/20 07:47:54;;;;;;;12.00;4.32;;;;;;;;;;4997764;28;20201;-89
2022/06/20 07:51:39;;;;;;;12.60;4.70;;;;;;;;;;4971707;28;20568;-89
2022/06/20 07:54:48;;;;;;;13.63;4.30;;;;;;;;;;4962908;28;20230;-89
2022/06/20 07:58:02;;;;;;;12.60;4.47;;;;;;;;;;5001129;28;20200;-89
2022/06/20 08:01:24;;;;;;;18.25;4.70;;;;;;;;;;4990740;28;20181;-89
2022/06/20 08:04:32;;;;;;;13.25;4.07;;;;;;;;;;4993896;28;20223;-89
2022/06/20 08:07:40;;;;;;;15.10;3.67;;;;;;;;;;4986763;28;20195;-89
2022/06/20 08:10:50;;;;;;;19.92;4.75;;;;;;;;;;4990628;28;20203;-89
2022/06/20 08:13:55;;;;;;;12.88;4.50;;;;;;;;;;4993693;28;20573;-89
2022/06/20 08:17:02;;;;;;;11.73;4.22;;;;;;;;;;4994415;28;20178;-89
2022/06/20 08:20:07;;;;;;;13.57;4.53;;;;;;;;;;4963960;28;20640;-89
2022/06/20 08:23:19;;;;;;;15.95;4.85;;;;;;;;;;4986713;28;20198;-89
2022/06/20 08:26:30;;;;;;;14.95;4.55;;;;;;;;;;4974621;28;20588;-89
2022/06/20 08:29:52;;;;;;;17.23;4.30;;;;;;;;;;4991591;28;20195;-89
2022/06/20 08:33:10;;;;;;;12.77;3.67;;;;;;;;;;4955239;28;20186;-89
2022/06/20 08:36:21;;;;;;;12.10;4.25;;;;;;;;;;4977349;28;20200;-89
2022/06/20 08:39:33;;;;;;;12.70;3.95;;;;;;;;;;4977248;28;20179;-89
2022/06/20 08:42:37;;;;;;;8.95;4.00;;;;;;;;;;4965003;28;20549;-89
2022/06/20 08:46:23;;;;;;;14.20;4.07;;;;;;;;;;5010053;28;20221;-89
2022/06/20 08:49:46;;;;;;;10.40;3.10;;;;;;;;;;4993621;28;20653;-89
2022/06/20 08:53:22;;;;;;;13.63;3.10;;;;;;;;;;4985702;28;20197;-89
2022/06/20 08:56:50;;;;;;;16.17;4.07;;;;;;;;;;4954832;28;20552;-89
2022/06/20 09:00:09;;;;;;;12.88;3.50;;;;;;;;;;4976876;28;20185;-89
2022/06/20 09:03:55;;;;;;;14.80;3.75;;;;;;;;;;4976812;28;20641;-89
2022/06/20 09:07:24;;;;;;;12.75;3.95;;;;;;;;;;4954496;28;20213;-89
2022/06/20 09:10:46;;;;;;;12.23;3.78;;;;;;;;;;4973346;28;20204;-89
2022/06/20 09:14:09;;;;;;;9.88;3.65;;;;;;;;;;4971889;28;20196;-88
2022/06/20 09:17:30;;;;;;;17.88;3.88;;;;;;;;;;4984825;28;20187;-89
2022/06/20 09:21:03;;;;;;;10.20;4.10;;;;;;;;;;4976346;28;20190;-89
2022/06/20 09:24:27;;;;;;;8.38;3.30;;;;;;;;;;4980492;28;20222;-88
2022/06/20 09:28:12;;;;;;;12.82;3.70;;;;;;;;;;4973810;28;20550;-89
2022/06/20 09:31:31;;;;;;;10.88;3.13;;;;;;;;;;4992991;28;20182;-89
2022/06/20 09:34:53;;;;;;;11.77;3.63;;;;;;;;;;4985163;28;20222;-89
2022/06/20 09:38:22;;;;;;;9.52;3.55;;;;;;;;;;4985078;28;20186;-89
2022/06/20 09:41:38;;;;;;;10.73;3.83;;;;;;;;;;4973581;28;20625;-89
2022/06/20 09:44:47;;;;;;;16.35;3.92;;;;;;;;;;4974052;28;20226;-89
2022/06/20 09:48:12;;;;;;;12.13;3.75;;;;;;;;;;4981262;28;20214;-89
2022/06/20 09:51:28;;;;;;;14.00;3.72;;;;;;;;;;4967201;28;20539;-89
2022/06/20 09:54:50;;;;;;;10.85;3.75;;;;;;;;;;4964514;28;20222;-89
2022/06/20 09:58:09;;;;;;;11.00;3.60;;;;;;;;;;4964761;28;20175;-89
2022/06/20 10:01:33;;;;;;;11.55;4.10;;;;;;;;;;4990747;28;20190;-89
2022/06/20 10:04:49;;;;;;;8.75;3.90;;;;;;;;;;4980732;28;20230;-89
2022/06/20 10:07:57;;;;;;;9.13;3.60;;;;;;;;;;4953400;28;20211;-89
2022/06/20 10:11:01;;;;;;;15.15;3.22;;;;;;;;;;4957641;28;20198;-88
2022/06/20 10:14:20;;;;;;;10.43;3.22;;;;;;;;;;4971148;28;20238;-86
2022/06/20 10:17:39;;;;;;;7.47;3.08;;;;;;;;;;5027563;23;20236;-79
2022/06/20 10:20:47;;;;;;;5.22;2.88;;;;;;;;;;5001326;28;20230;-78
2022/06/20 10:24:13;;;;;;;7.80;2.88;;;;;;;;;;5008030;28;20191;-78
2022/06/20 10:27:36;;;;;;;7.60;3.20;;;;;;;;;;5001354;28;20209;-78
2022/06/20 10:30:53;;;;;;;7.07;3.45;;;;;;;;;;5001366;28;20213;-78
2022/06/20 10:34:00;;;;;;;8.63;3.00;;;;;;;;;;5004513;28;20194;-79
2022/06/20 10:37:29;;;;;;;6.35;3.13;;;;;;;;;;5020445;28;20186;-79
2022/06/20 10:40:43;;;;;;;5.88;3.15;;;;;;;;;;5011262;28;20229;-78
2022/06/20 10:43:48;;;;;;;8.68;3.30;;;;;;;;;;5010767;28;20190;-78
2022/06/20 10:47:16;;;;;;;11.77;3.10;;;;;;;;;;5018352;28;20232;-78
2022/06/20 10:50:27;;;;;;;8.52;3.75;;;;;;;;;;5012015;28;20206;-78
2022/06/20 10:54:03;;;;;;;9.80;3.65;;;;;;;;;;5006021;28;20190;-79
2022/06/20 10:57:13;;;;;;;8.75;3.80;;;;;;;;;;5007556;28;20182;-78
2022/06/20 11:00:20;;;;;;;9.70;3.70;;;;;;;;;;4994071;28;20194;-79
2022/06/20 11:03:41;;;;;;;7.05;3.22;;;;;;;;;;5005126;28;20183;-79
2022/06/20 11:07:10;;;;;;;7.60;3.17;;;;;;;;;;5002123;28;20203;-79
2022/06/20 11:10:40;;;;;;;7.50;3.45;;;;;;;;;;4984984;28;20191;-78
2022/06/20 11:13:51;;;;;;;10.43;3.22;;;;;;;;;;4982301;28;20186;-79
2022/06/20 11:17:17;;;;;;;7.95;3.38;;;;;;;;;;5020238;28;20205;-79
2022/06/20 11:20:27;;;;;;;8.25;3.70;;;;;;;;;;4996043;28;20198;-79
2022/06/20 11:23:47;;;;;;;7.93;3.45;;;;;;;;;;5020899;28;20178;-79
2022/06/20 11:27:16;;;;;;;10.05;3.38;;;;;;;;;;5010415;28;20202;-79
2022/06/20 11:30:27;;;;;;;8.55;3.38;;;;;;;;;;5022038;28;21555;-79
2022/06/20 11:34:09;;;;;;;8.07;3.17;;;;;;;;;;5022416;28;20518;-79
2022/06/20 11:37:22;;;;;;;10.80;3.47;;;;;;;;;;5018919;28;20186;-78
2022/06/20 11:40:56;;;;;;;8.18;3.65;;;;;;;;;;5013537;28;20190;-79
2022/06/20 11:44:21;;;;;;;9.43;3.28;;;;;;;;;;4989239;28;20194;-78
2022/06/20 11:47:43;;;;;;;10.88;3.70;;;;;;;;;;5018735;28;20209;-79
2022/06/20 11:51:12;;;;;;;7.55;3.63;;;;;;;;;;5015228;28;20213;-79
2022/06/20 11:54:38;;;;;;;8.38;3.40;;;;;;;;;;5018081;28;20181;-79
2022/06/20 11:57:53;;;;;;;11.73;3.55;;;;;;;;;;5017395;28;20198;-78
2022/06/20 12:01:20;;;;;;;11.95;3.80;;;;;;;;;;4999897;28;20221;-79
2022/06/20 12:04:36;;;;;;;9.98;3.60;;;;;;;;;;4991225;28;20190;-79
2022/06/20 12:07:56;;;;;;;11.60;4.05;;;;;;;;;;5011316;28;20203;-79
2022/06/20 12:11:11;;;;;;;8.55;3.58;;;;;;;;;;5006658;28;20221;-79
2022/06/20 12:14:23;;;;;;;8.27;3.70;;;;;;;;;;5019664;28;20178;-78
2022/06/20 12:17:56;;;;;;;6.10;3.85;;;;;;;;;;5019229;28;20205;-79
2022/06/20 12:24:30;;;;;;;10.63;3.78;;;;;;;;;;5007060;28;20189;-79
2022/06/20 12:27:34;;;;;;;12.80;3.72;;;;;;;;;;5019736;28;20205;-79
2022/06/20 12:30:38;;;;;;;11.30;3.50;;;;;;;;;;5017490;28;20577;-78
2022/06/20 12:33:47;;;;;;;9.00;3.78;;;;;;;;;;5015955;28;20182;-78
2022/06/20 12:37:17;;;;;;;10.63;4.07;;;;;;;;;;4998410;28;20183;-79
2022/06/20 12:40:36;;;;;;;17.40;3.72;;;;;;;;;;5001343;28;20182;-79
2022/06/20 12:44:13;;;;;;;9.02;3.78;;;;;;;;;;5002742;28;20187;-79
2022/06/20 12:47:42;;;;;;;18.02;4.13;;;;;;;;;;4994120;28;20218;-79
2022/06/20 12:51:09;;;;;;;10.25;3.58;;;;;;;;;;5000961;28;20226;-79
2022/06/20 12:54:23;;;;;;;11.18;3.78;;;;;;;;;;5021231;28;20190;-79
2022/06/20 12:57:53;;;;;;;19.70;4.13;;;;;;;;;;4999094;28;20179;-79
2022/06/20 13:01:01;;;;;;;8.07;3.97;;;;;;;;;;4997656;28;20218;-79
2022/06/20 13:04:35;;;;;;;11.98;5.40;;;;;;;;;;5011713;28;20174;-79
2022/06/20 13:07:48;;;;;;;11.02;4.07;;;;;;;;;;4989010;28;20221;-79
2022/06/20 13:10:55;;;;;;;9.50;4.45;;;;;;;;;;5013288;28;20222;-80
2022/06/20 13:14:19;;;;;;;16.05;3.78;;;;;;;;;;4996110;28;20191;-78
2022/06/20 13:17:36;;;;;;;8.65;3.75;;;;;;;;;;5009807;28;20214;-78
2022/06/20 13:20:55;;;;;;;9.45;3.83;;;;;;;;;;5011663;28;20218;-78
2022/06/20 13:24:21;;;;;;;5.85;3.63;;;;;;;;;;5013004;28;20174;-79
2022/06/20 13:27:31;;;;;;;10.18;4.68;;;;;;;;;;5005277;28;20214;-79
2022/06/20 13:30:50;;;;;;;6.78;4.22;;;;;;;;;;5029278;28;20222;-78
2022/06/20 13:34:15;;;;;;;10.00;4.55;;;;;;;;;;5010711;28;20190;-78
2022/06/20 13:37:35;;;;;;;12.35;4.40;;;;;;;;;;5019756;28;20195;-78
2022/06/20 13:41:05;;;;;;;12.90;4.95;;;;;;;;;;5004613;28;20223;-78
2022/06/20 13:44:32;;;;;;;9.27;5.30;;;;;;;;;;4992870;28;20179;-79
2022/06/20 13:47:51;;;;;;;8.90;5.07;;;;;;;;;;5013096;28;20206;-77
2022/06/20 13:51:13;;;;;;;6.93;4.57;;;;;;;;;;5020238;28;20226;-79
2022/06/20 13:54:33;;;;;;;11.52;4.97;;;;;;;;;;5018802;28;20190;-78
2022/06/20 13:57:44;;;;;;;12.18;4.82;;;;;;;;;;5000075;28;20187;-78
2022/06/20 14:01:00;;;;;;;11.18;4.70;;;;;;;;;;4979544;28;20219;-78
2022/06/20 14:04:12;;;;;;;10.52;4.95;;;;;;;;;;4983537;28;20179;-78
2022/06/20 14:07:28;;;;;;;38.00;6.95;;;;;;;;;;5009719;28;20216;-75
2022/06/20 14:11:02;;;;;;;17.40;4.50;;;;;;;;;;4984634;28;20190;-78
2022/06/20 14:14:32;;;;;;;16.08;5.80;;;;;;;;;;4994654;28;20182;-76
2022/06/20 14:17:39;;;;;;;12.83;5.40;;;;;;;;;;4994359;28;20685;-77
2022/06/20 14:20:54;;;;;;;20.17;5.93;;;;;;;;;;4995705;28;20251;-77
2022/06/20 14:23:58;;;;;;;60.33;7.80;;;;;;;;;;5012451;28;20198;-77
2022/06/20 14:27:04;;;;;;;8.50;4.90;;;;;;;;;;4993937;28;20186;-76
2022/06/20 14:30:31;;;;;;;8.53;5.00;;;;;;;;;;4984319;28;20186;-77
2022/06/20 14:33:41;;;;;;;8.17;5.30;;;;;;;;;;4990824;28;20223;-76
2022/06/20 14:37:07;;;;;;;9.70;6.00;;;;;;;;;;4993665;28;20182;-76
2022/06/20 14:40:20;;;;;;;10.73;6.03;;;;;;;;;;4994081;28;20186;-76
2022/06/20 14:43:45;;;;;;;8.70;5.83;;;;;;;;;;4994350;28;20179;-76
2022/06/20 14:46:49;;;;;;;9.80;7.17;;;;;;;;;;4993467;28;20182;-76
2022/06/20 14:50:09;;;;;;;17.07;6.53;;;;;;;;;;5012843;28;20178;-76
2022/06/20 14:53:42;;;;;;;11.73;7.30;;;;;;;;;;5009705;28;20202;-76
2022/06/20 14:57:00;;;;;;;9.77;7.07;;;;;;;;;;4975041;28;20187;-76
2022/06/20 15:00:13;;;;;;;9.83;7.27;;;;;;;;;;4975033;28;20175;-76
2022/06/20 15:03:22;;;;;;;10.97;7.33;;;;;;;;;;4974411;28;20179;-76
2022/06/20 15:07:15;;;;;;;9.47;7.60;;;;;;;;;;4979924;28;20178;-78
2022/06/20 15:10:39;;;;;;;9.30;7.00;;;;;;;;;;4986180;28;20542;-78
2022/06/20 15:13:52;;;;;;;10.87;7.00;;;;;;;;;;4982995;28;20186;-78
2022/06/20 15:17:10;;;;;;;9.13;5.60;;;;;;;;;;4989242;28;20209;-78
2022/06/20 15:20:25;;;;;;;13.40;4.60;;;;;;;;;;5017731;28;20198;-80
2022/06/20 15:24:11;;;;;;;10.07;4.60;;;;;;;;;;5018092;28;20534;-78
2022/06/20 15:27:47;;;;;;;10.07;3.87;;;;;;;;;;4995242;28;20197;-78
2022/06/20 15:31:05;;;;;;;7.90;3.50;;;;;;;;;;4985201;28;20213;-78
2022/06/20 15:34:36;;;;;;;8.00;4.20;;;;;;;;;;5013319;28;20193;-78
2022/06/20 15:37:41;;;;;;;11.43;4.00;;;;;;;;;;5008533;28;20182;-77
2022/06/20 15:40:51;;;;;;;8.10;3.50;;;;;;;;;;4988725;28;20226;-78
2022/06/20 15:44:06;;;;;;;7.00;3.93;;;;;;;;;;4986280;28;20182;-77
2022/06/20 15:47:13;;;;;;;11.10;3.70;;;;;;;;;;4997581;28;20665;-78
2022/06/20 15:50:24;;;;;;;6.17;3.83;;;;;;;;;;5008857;28;20185;-78
2022/06/20 15:53:52;;;;;;;8.90;3.87;;;;;;;;;;5004235;28;20668;-78
2022/06/20 15:57:02;;;;;;;7.60;2.87;;;;;;;;;;5001091;28;20198;-77
2022/06/20 16:00:12;;;;;;;10.20;3.00;;;;;;;;;;4999209;28;20190;-77
2022/06/20 16:03:32;;;;;;;4.70;2.80;;;;;;;;;;4993595;28;20186;-77
2022/06/20 16:07:11;;;;;;;5.50;2.40;;;;;;;;;;5004489;28;20187;-78
2022/06/20 16:10:25;;;;;;;7.57;3.30;;;;;;;;;;4989822;28;20174;-79
2022/06/20 16:13:32;;;;;;;4.87;3.27;;;;;;;;;;5010575;28;20181;-78
2022/06/20 16:16:44;;;;;;;8.03;3.23;;;;;;;;;;5021008;28;20201;-78
2022/06/20 16:19:49;;;;;;;9.13;3.80;;;;;;;;;;5006295;22;20190;-78
2022/06/20 16:22:55;;;;;;;9.43;2.73;;;;;;;;;;4958240;28;20187;-79
2022/06/20 16:26:15;;;;;;;8.63;3.27;;;;;;;;;;4980737;28;20198;-79
2022/06/20 16:29:27;;;;;;;10.23;2.97;;;;;;;;;;4974512;28;20579;-77
2022/06/20 16:32:38;;;;;;;5.13;2.70;;;;;;;;;;4972454;28;20954;-77
2022/06/20 16:35:43;;;;;;;7.03;3.13;;;;;;;;;;4980969;28;20539;-77
2022/06/20 16:38:57;;;;;;;9.37;3.27;;;;;;;;;;4958918;28;20190;-78
2022/06/20 16:42:33;;;;;;;3.80;2.73;;;;;;;;;;4974509;28;20226;-80
2022/06/20 16:46:02;;;;;;;6.37;2.67;;;;;;;;;;4963175;28;20195;-78
2022/06/20 16:49:12;;;;;;;6.07;3.00;;;;;;;;;;4958277;28;20557;-78
2022/06/20 16:52:30;;;;;;;8.33;2.90;;;;;;;;;;4964408;28;20223;-79
2022/06/20 16:55:41;;;;;;;7.30;2.90;;;;;;;;;;4967110;28;20203;-80
2022/06/20 16:58:49;;;;;;;9.57;2.87;;;;;;;;;;4979073;28;20187;-79
2022/06/20 17:02:15;;;;;;;6.23;3.03;;;;;;;;;;4977366;28;20226;-80
2022/06/20 17:05:28;;;;;;;7.70;2.50;;;;;;;;;;4974843;28;20199;-78
2022/06/20 17:08:45;;;;;;;4.03;2.63;;;;;;;;;;4963304;28;20206;-78
2022/06/20 17:12:02;;;;;;;8.80;2.80;;;;;;;;;;4980080;28;20226;-79
2022/06/20 17:15:32;;;;;;;7.20;3.03;;;;;;;;;;4996969;28;20190;-80
2022/06/20 17:18:44;;;;;;;5.50;3.27;;;;;;;;;;4986946;28;20182;-81
2022/06/20 17:22:05;;;;;;;4.37;3.17;;;;;;;;;;4956220;28;20231;-80
2022/06/20 17:25:33;;;;;;;4.97;2.80;;;;;;;;;;4978366;28;20195;-82
2022/06/20 17:28:51;;;;;;;4.97;2.73;;;;;;;;;;4948866;28;20200;-82
2022/06/20 17:32:10;;;;;;;6.70;2.60;;;;;;;;;;4959887;29;20563;-81
2022/06/20 17:35:28;;;;;;;7.80;2.87;;;;;;;;;;4961862;28;20195;-82
2022/06/20 17:38:36;;;;;;;6.47;2.90;;;;;;;;;;4977982;28;20194;-82
2022/06/20 17:41:50;;;;;;;5.03;3.07;;;;;;;;;;4987872;28;20221;-82
2022/06/20 17:45:00;;;;;;;4.67;2.60;;;;;;;;;;4969654;28;20194;-83
2022/06/20 17:48:41;;;;;;;6.93;3.50;;;;;;;;;;4980547;28;20195;-82
2022/06/20 17:52:03;;;;;;;4.40;3.27;;;;;;;;;;4969079;28;20226;-83
2022/06/20 17:55:36;;;;;;;8.53;3.20;;;;;;;;;;4981581;28;20179;-80
2022/06/20 17:58:55;;;;;;;6.13;3.40;;;;;;;;;;4948911;29;20520;-81
2022/06/20 18:02:23;;;;;;;4.30;3.23;;;;;;;;;;4947061;29;20219;-82
2022/06/20 18:05:32;;;;;;;10.83;3.50;;;;;;;;;;4958539;29;20195;-81
2022/06/20 18:09:04;;;;;;;4.57;3.10;;;;;;;;;;4948227;29;20216;-81
2022/06/20 18:12:21;;;;;;;5.83;3.20;;;;;;;;;;4950706;29;20215;-85
2022/06/20 18:15:34;;;;;;;6.50;3.50;;;;;;;;;;4965589;28;20639;-84
2022/06/20 18:18:49;;;;;;;7.93;3.37;;;;;;;;;;4990454;28;20190;-84
2022/06/20 18:21:59;;;;;;;6.50;3.60;;;;;;;;;;4989516;28;20226;-84
2022/06/20 18:25:14;;;;;;;5.77;3.33;;;;;;;;;;4989331;28;20182;-86
2022/06/20 18:28:19;;;;;;;4.63;3.57;;;;;;;;;;4999829;28;20198;-83
2022/06/20 18:31:33;;;;;;;6.27;3.30;;;;;;;;;;4999622;28;20565;-82
2022/06/20 18:34:40;;;;;;;8.10;3.57;;;;;;;;;;4987943;28;20198;-82
2022/06/20 18:38:09;;;;;;;4.87;3.47;;;;;;;;;;4969758;28;20186;-82
2022/06/20 18:41:19;;;;;;;6.50;3.63;;;;;;;;;;4983319;28;20214;-84
2022/06/20 18:44:26;;;;;;;7.50;3.60;;;;;;;;;;4987995;28;20626;-82
2022/06/20 18:47:39;;;;;;;7.23;3.87;;;;;;;;;;4948301;28;20188;-82
2022/06/20 18:50:53;;;;;;;4.80;3.40;;;;;;;;;;4959960;29;20211;-83
2022/06/20 18:54:10;;;;;;;7.93;3.57;;;;;;;;;;4975377;28;20190;-80
2022/06/20 18:57:46;;;;;;;8.43;3.80;;;;;;;;;;4983739;28;20186;-81
2022/06/20 19:01:11;;;;;;;7.33;3.57;;;;;;;;;;4988775;28;20222;-82
2022/06/20 19:05:07;;;;;;;4.77;3.60;;;;;;;;;;4985575;28;20198;-83
2022/06/20 19:08:44;;;;;;;8.67;3.70;;;;;;;;;;4973539;28;20559;-82
2022/06/20 19:12:00;;;;;;;6.73;3.70;;;;;;;;;;4970504;28;20231;-81
2022/06/20 19:15:46;;;;;;;9.20;4.00;;;;;;;;;;4960807;28;20666;-80
2022/06/20 19:19:02;;;;;;;5.13;3.17;;;;;;;;;;4970133;28;20194;-79
2022/06/20 19:22:34;;;;;;;3.90;2.80;;;;;;;;;;4984212;28;20214;-78
2022/06/20 19:25:48;;;;;;;3.73;3.10;;;;;;;;;;4966951;28;20179;-78
2022/06/20 19:29:04;;;;;;;5.73;3.07;;;;;;;;;;4978417;28;20219;-80
2022/06/20 19:32:14;;;;;;;3.63;3.00;;;;;;;;;;4972693;28;20222;-79
2022/06/20 19:35:34;;;;;;;4.13;2.97;;;;;;;;;;4973589;28;20194;-79
2022/06/20 19:39:08;;;;;;;4.93;2.77;;;;;;;;;;4971178;28;20190;-80
2022/06/20 19:42:27;;;;;;;3.13;2.87;;;;;;;;;;4985303;28;20229;-79
2022/06/20 19:45:40;;;;;;;5.03;2.80;;;;;;;;;;4986202;28;20182;-79
2022/06/20 19:48:44;;;;;;;2.87;2.60;;;;;;;;;;4959185;29;20183;-81
2022/06/20 19:51:50;;;;;;;3.27;2.60;;;;;;;;;;4985445;28;20700;-80
2022/06/20 19:55:02;;;;;;;5.80;2.67;;;;;;;;;;4947537;29;20183;-81
2022/06/20 19:58:06;;;;;;;3.43;2.60;;;;;;;;;;4958648;28;20203;-80
2022/06/20 20:01:13;;;;;;;4.17;2.73;;;;;;;;;;4966340;28;20214;-81